sensor_id;sensor_type;location;lat;lon;timestamp;pressure;altitude;pressure_sealevel;temperature;humidity
57904;BME280;43720;47.462;19.030;2023-04-25T03:55:41;99216.94;;;11.34;83.48
57904;BME280;43720;47.462;19.030;2023-04-25T03:58:45;99221.31;;;11.34;84.02
57904;BME280;43720;47.462;19.030;2023-04-25T04:01:47;99227.34;;;11.42;84.00
57904;BME280;43720;47.462;19.030;2023-04-25T04:04:50;99229.97;;;11.46;83.55
57904;BME280;43720;47.462;19.030;2023-04-25T04:07:53;99234.34;;;11.43;83.33
57904;BME280;43720;47.462;19.030;2023-04-25T04:10:57;99226.50;;;11.41;82.39
57904;BME280;43720;47.462;19.030;2023-04-25T04:14:00;99229.06;;;11.47;82.04
57904;BME280;43720;47.462;19.030;2023-04-25T04:17:03;99230.87;;;11.38;81.46
57904;BME280;43720;47.462;19.030;2023-04-25T04:20:05;99236.97;;;11.40;81.69
57904;BME280;43720;47.462;19.030;2023-04-25T04:23:08;99239.66;;;11.32;81.88
57904;BME280;43720;47.462;19.030;2023-04-25T04:26:11;99244.88;;;11.35;83.46
57904;BME280;43720;47.462;19.030;2023-04-25T04:29:15;99248.34;;;11.34;85.03
57904;BME280;43720;47.462;19.030;2023-04-25T04:32:22;99253.59;;;11.33;87.14
57904;BME280;43720;47.462;19.030;2023-04-25T04:35:26;99250.16;;;11.26;89.71
57904;BME280;43720;47.462;19.030;2023-04-25T04:38:29;99251.91;;;11.24;90.23
57904;BME280;43720;47.462;19.030;2023-04-25T04:41:32;99251.94;;;11.21;87.51
57904;BME280;43720;47.462;19.030;2023-04-25T04:44:36;99249.31;;;11.24;88.85
57904;BME280;43720;47.462;19.030;2023-04-25T04:47:41;99247.56;;;11.24;88.23
57904;BME280;43720;47.462;19.030;2023-04-25T04:50:45;99254.56;;;11.19;90.03
57904;BME280;43720;47.462;19.030;2023-04-25T04:53:48;99260.59;;;11.32;92.11
57904;BME280;43720;47.462;19.030;2023-04-25T04:56:51;99250.19;;;11.18;88.38
57904;BME280;43720;47.462;19.030;2023-04-25T04:59:55;99273.75;;;11.23;91.97
57904;BME280;43720;47.462;19.030;2023-04-25T05:02:58;99253.81;;;11.00;95.79
57904;BME280;43720;47.462;19.030;2023-04-25T05:06:01;99247.69;;;10.98;92.82
57904;BME280;43720;47.462;19.030;2023-04-25T05:09:03;99249.47;;;10.92;91.90
57904;BME280;43720;47.462;19.030;2023-04-25T05:12:06;99250.38;;;10.89;93.13
57904;BME280;43720;47.462;19.030;2023-04-25T05:15:09;99247.81;;;10.72;93.44
57904;BME280;43720;47.462;19.030;2023-04-25T05:18:12;99258.28;;;10.71;92.94
57904;BME280;43720;47.462;19.030;2023-04-25T05:21:15;99271.38;;;10.68;93.69
57904;BME280;43720;47.462;19.030;2023-04-25T05:24:19;99251.41;;;10.44;95.61
57904;BME280;43720;47.462;19.030;2023-04-25T05:27:23;99247.13;;;10.31;98.01
57904;BME280;43720;47.462;19.030;2023-04-25T05:30:26;99272.38;;;10.19;100.00
57904;BME280;43720;47.462;19.030;2023-04-25T05:33:29;99258.44;;;10.10;100.00
57904;BME280;43720;47.462;19.030;2023-04-25T05:36:34;99261.09;;;9.96;100.00
57904;BME280;43720;47.462;19.030;2023-04-25T05:39:36;99266.28;;;9.87;100.00
57904;BME280;43720;47.462;19.030;2023-04-25T05:42:39;99259.34;;;9.73;100.00
57904;BME280;43720;47.462;19.030;2023-04-25T05:45:41;99254.13;;;9.50;100.00
57904;BME280;43720;47.462;19.030;2023-04-25T05:48:45;99262.81;;;9.31;100.00
57904;BME280;43720;47.462;19.030;2023-04-25T05:51:48;99261.03;;;9.24;100.00
57904;BME280;43720;47.462;19.030;2023-04-25T05:54:51;99280.16;;;9.18;100.00
57904;BME280;43720;47.462;19.030;2023-04-25T05:57:54;99269.72;;;9.20;100.00
57904;BME280;43720;47.462;19.030;2023-04-25T06:00:57;99285.37;;;9.23;100.00
57904;BME280;43720;47.462;19.030;2023-04-25T06:04:00;99281.94;;;9.25;100.00
57904;BME280;43720;47.462;19.030;2023-04-25T06:07:03;99283.66;;;9.32;100.00
57904;BME280;43720;47.462;19.030;2023-04-25T06:10:07;99289.75;;;9.35;100.00
57904;BME280;43720;47.462;19.030;2023-04-25T06:13:10;99294.16;;;9.52;100.00
57904;BME280;43720;47.462;19.030;2023-04-25T06:16:12;99292.41;;;9.62;100.00
57904;BME280;43720;47.462;19.030;2023-04-25T06:19:14;99295.00;;;9.70;100.00
57904;BME280;43720;47.462;19.030;2023-04-25T06:22:17;99298.47;;;9.95;100.00
57904;BME280;43720;47.462;19.030;2023-04-25T06:25:19;99293.25;;;9.98;100.00
57904;BME280;43720;47.462;19.030;2023-04-25T06:28:22;99296.75;;;10.03;100.00
57904;BME280;43720;47.462;19.030;2023-04-25T06:31:26;99302.81;;;10.14;100.00
57904;BME280;43720;47.462;19.030;2023-04-25T06:34:29;99301.97;;;10.18;100.00
57904;BME280;43720;47.462;19.030;2023-04-25T06:37:32;99295.88;;;10.28;100.00
57904;BME280;43720;47.462;19.030;2023-04-25T06:40:34;99298.44;;;10.41;100.00
57904;BME280;43720;47.462;19.030;2023-04-25T06:43:39;99294.09;;;10.44;100.00
57904;BME280;43720;47.462;19.030;2023-04-25T06:46:43;99298.44;;;10.44;100.00
57904;BME280;43720;47.462;19.030;2023-04-25T06:49:48;99304.50;;;10.60;100.00
57904;BME280;43720;47.462;19.030;2023-04-25T06:52:50;99299.25;;;10.67;100.00
57904;BME280;43720;47.462;19.030;2023-04-25T06:55:53;99314.94;;;10.70;100.00
57904;BME280;43720;47.462;19.030;2023-04-25T06:58:56;99309.69;;;10.76;100.00
57904;BME280;43720;47.462;19.030;2023-04-25T07:01:58;99309.69;;;10.72;100.00
57904;BME280;43720;47.462;19.030;2023-04-25T07:05:02;99309.69;;;10.72;100.00
57904;BME280;43720;47.462;19.030;2023-04-25T07:08:06;99311.44;;;10.73;100.00
57904;BME280;43720;47.462;19.030;2023-04-25T07:11:08;99316.66;;;10.77;100.00
57904;BME280;43720;47.462;19.030;2023-04-25T07:14:10;99323.63;;;10.74;100.00
57904;BME280;43720;47.462;19.030;2023-04-25T07:17:13;99314.81;;;10.99;100.00
57904;BME280;43720;47.462;19.030;2023-04-25T07:20:15;99318.28;;;11.05;100.00
57904;BME280;43720;47.462;19.030;2023-04-25T07:23:19;99304.25;;;11.18;100.00
57904;BME280;43720;47.462;19.030;2023-04-25T07:26:21;99318.16;;;11.29;100.00
57904;BME280;43720;47.462;19.030;2023-04-25T07:29:25;99310.25;;;11.37;100.00
57904;BME280;43720;47.462;19.030;2023-04-25T07:32:27;99314.56;;;11.47;98.81
57904;BME280;43720;47.462;19.030;2023-04-25T07:35:31;99312.75;;;11.57;99.92
57904;BME280;43720;47.462;19.030;2023-04-25T07:38:33;99326.69;;;11.62;100.00
57904;BME280;43720;47.462;19.030;2023-04-25T07:41:36;99320.47;;;11.75;98.88
57904;BME280;43720;47.462;19.030;2023-04-25T07:44:38;99324.78;;;11.81;100.00
57904;BME280;43720;47.462;19.030;2023-04-25T07:47:42;99336.16;;;11.86;100.00
57904;BME280;43720;47.462;19.030;2023-04-25T07:50:44;99323.03;;;11.90;97.64
57904;BME280;43720;47.462;19.030;2023-04-25T07:53:48;99323.66;;;12.15;92.09
57904;BME280;43720;47.462;19.030;2023-04-25T07:56:52;99320.13;;;12.22;92.35
57904;BME280;43720;47.462;19.030;2023-04-25T07:59:55;99314.81;;;12.32;90.59
57904;BME280;43720;47.462;19.030;2023-04-25T08:02:57;99312.88;;;12.49;95.94
57904;BME280;43720;47.462;19.030;2023-04-25T08:06:00;99309.25;;;12.62;92.05
57904;BME280;43720;47.462;19.030;2023-04-25T08:09:06;99312.59;;;12.73;89.87
57904;BME280;43720;47.462;19.030;2023-04-25T08:12:10;99317.59;;;12.95;86.24
57904;BME280;43720;47.462;19.030;2023-04-25T08:15:15;99307.25;;;12.81;91.33
57904;BME280;43720;47.462;19.030;2023-04-25T08:18:17;99316.78;;;12.90;88.13
57904;BME280;43720;47.462;19.030;2023-04-25T08:21:20;99318.62;;;12.82;82.40
57904;BME280;43720;47.462;19.030;2023-04-25T08:24:23;99323.91;;;12.77;85.58
57904;BME280;43720;47.462;19.030;2023-04-25T08:27:26;99323.00;;;12.81;82.32
57904;BME280;43720;47.462;19.030;2023-04-25T08:30:29;99321.28;;;12.79;82.03
57904;BME280;43720;47.462;19.030;2023-04-25T08:33:32;99321.06;;;12.98;84.44
57904;BME280;43720;47.462;19.030;2023-04-25T08:36:35;99328.22;;;12.86;79.33
57904;BME280;43720;47.462;19.030;2023-04-25T08:39:42;99328.13;;;12.92;80.03
57904;BME280;43720;47.462;19.030;2023-04-25T08:42:48;99317.53;;;13.01;84.49
57904;BME280;43720;47.462;19.030;2023-04-25T08:45:53;99326.12;;;13.11;78.64
57904;BME280;43720;47.462;19.030;2023-04-25T08:49:00;99339.94;;;13.30;81.55
57904;BME280;43720;47.462;19.030;2023-04-25T08:52:04;99342.50;;;13.31;80.46
57904;BME280;43720;47.462;19.030;2023-04-25T08:55:11;99345.69;;;13.55;79.37
57904;BME280;43720;47.462;19.030;2023-04-25T08:58:15;99344.00;;;13.52;80.14
57904;BME280;43720;47.462;19.030;2023-04-25T09:01:18;99346.63;;;13.51;78.14
57904;BME280;43720;47.462;19.030;2023-04-25T09:04:21;99356.38;;;13.44;80.90
57904;BME280;43720;47.462;19.030;2023-04-25T09:07:29;99343.28;;;13.41;79.13
57904;BME280;43720;47.462;19.030;2023-04-25T09:10:37;99352.06;;;13.38;80.43
57904;BME280;43720;47.462;19.030;2023-04-25T09:13:40;99353.72;;;13.45;78.20
57904;BME280;43720;47.462;19.030;2023-04-25T09:20:13;99356.41;;;13.39;76.54
57904;BME280;43720;47.462;19.030;2023-04-25T09:23:18;99361.63;;;13.42;75.49
57904;BME280;43720;47.462;19.030;2023-04-25T09:26:23;99348.72;;;13.26;76.58
57904;BME280;43720;47.462;19.030;2023-04-25T09:29:29;99346.66;;;13.49;76.41
57904;BME280;43720;47.462;19.030;2023-04-25T09:32:33;99347.56;;;13.48;77.97
57904;BME280;43720;47.462;19.030;2023-04-25T09:36:34;99353.53;;;13.58;73.33
57904;BME280;43720;47.462;19.030;2023-04-25T09:39:38;99346.69;;;13.46;77.22
57904;BME280;43720;47.462;19.030;2023-04-25T09:42:45;99343.84;;;13.63;75.19
57904;BME280;43720;47.462;19.030;2023-04-25T09:45:49;99341.62;;;13.94;76.18
57904;BME280;43720;47.462;19.030;2023-04-25T09:48:53;99339.69;;;14.04;73.99
57904;BME280;43720;47.462;19.030;2023-04-25T09:51:57;99338.63;;;14.15;72.68
57904;BME280;43720;47.462;19.030;2023-04-25T09:55:05;99333.28;;;14.20;70.95
57904;BME280;43720;47.462;19.030;2023-04-25T09:58:13;99343.66;;;14.29;70.69
57904;BME280;43720;47.462;19.030;2023-04-25T10:01:17;99352.34;;;14.34;72.38
57904;BME280;43720;47.462;19.030;2023-04-25T10:04:24;99336.13;;;14.08;67.34
57904;BME280;43720;47.462;19.030;2023-04-25T10:07:30;99354.47;;;14.09;70.49
57904;BME280;43720;47.462;19.030;2023-04-25T10:10:34;99343.63;;;13.77;68.81
57904;BME280;43720;47.462;19.030;2023-04-25T10:13:38;99351.34;;;13.87;72.38
57904;BME280;43720;47.462;19.030;2023-04-25T10:16:42;99348.78;;;13.84;72.54
57904;BME280;43720;47.462;19.030;2023-04-25T10:19:45;99345.94;;;13.98;70.72
57904;BME280;43720;47.462;19.030;2023-04-25T10:22:54;99341.94;;;13.73;70.52
57904;BME280;43720;47.462;19.030;2023-04-25T10:26:03;99335.16;;;13.58;68.07
57904;BME280;43720;47.462;19.030;2023-04-25T10:29:09;99343.03;;;13.58;69.27
57904;BME280;43720;47.462;19.030;2023-04-25T10:32:44;99336.75;;;13.68;68.74
57904;BME280;43720;47.462;19.030;2023-04-25T10:35:52;99346.06;;;13.90;70.70
57904;BME280;43720;47.462;19.030;2023-04-25T10:39:03;99336.94;;;14.11;69.16
57904;BME280;43720;47.462;19.030;2023-04-25T10:42:14;99330.44;;;14.34;67.10
57904;BME280;43720;47.462;19.030;2023-04-25T10:45:21;99325.75;;;14.51;65.65
57904;BME280;43720;47.462;19.030;2023-04-25T10:48:30;99334.38;;;14.59;63.00
57904;BME280;43720;47.462;19.030;2023-04-25T10:51:37;99333.22;;;14.74;66.79
57904;BME280;43720;47.462;19.030;2023-04-25T10:54:52;99348.03;;;14.80;63.56
57904;BME280;43720;47.462;19.030;2023-04-25T10:57:54;99349.28;;;14.59;63.64
57904;BME280;43720;47.462;19.030;2023-04-25T11:00:57;99330.91;;;14.57;61.62
57904;BME280;43720;47.462;19.030;2023-04-25T11:03:59;99357.41;;;14.43;67.42
57904;BME280;43720;47.462;19.030;2023-04-25T11:10:08;99346.94;;;14.42;62.74
57904;BME280;43720;47.462;19.030;2023-04-25T11:13:11;99346.41;;;14.73;60.46
57904;BME280;43720;47.462;19.030;2023-04-25T11:16:13;99343.22;;;15.82;61.44
57904;BME280;43720;47.462;19.030;2023-04-25T11:19:20;99338.66;;;16.25;55.94
57904;BME280;43720;47.462;19.030;2023-04-25T11:22:23;99339.53;;;16.25;55.04
57904;BME280;43720;47.462;19.030;2023-04-25T11:25:26;99344.69;;;16.30;55.83
57904;BME280;43720;47.462;19.030;2023-04-25T11:28:28;99346.34;;;15.98;55.30
57904;BME280;43720;47.462;19.030;2023-04-25T11:31:31;99346.25;;;16.71;54.46
57904;BME280;43720;47.462;19.030;2023-04-25T11:34:33;99354.38;;;16.63;52.89
57904;BME280;43720;47.462;19.030;2023-04-25T11:37:38;99349.91;;;15.97;52.21
57904;BME280;43720;47.462;19.030;2023-04-25T11:40:40;99353.50;;;15.54;53.61
57904;BME280;43720;47.462;19.030;2023-04-25T11:43:43;99349.44;;;15.39;55.57
57904;BME280;43720;47.462;19.030;2023-04-25T11:46:46;99362.75;;;15.32;56.82
57904;BME280;43720;47.462;19.030;2023-04-25T11:49:48;99366.66;;;15.14;56.98
57904;BME280;43720;47.462;19.030;2023-04-25T11:52:51;99362.31;;;15.10;55.11
57904;BME280;43720;47.462;19.030;2023-04-25T11:55:54;99368.28;;;15.20;55.70
57904;BME280;43720;47.462;19.030;2023-04-25T11:59:01;99369.75;;;14.91;55.63
57904;BME280;43720;47.462;19.030;2023-04-25T12:02:05;99364.91;;;15.13;57.49
57904;BME280;43720;47.462;19.030;2023-04-25T12:05:10;99385.19;;;15.08;58.95
57904;BME280;43720;47.462;19.030;2023-04-25T12:08:31;99381.88;;;15.41;53.92
57904;BME280;43720;47.462;19.030;2023-04-25T12:11:54;99386.69;;;16.02;53.72
57904;BME280;43720;47.462;19.030;2023-04-25T12:18:24;99368.22;;;17.65;47.82
57904;BME280;43720;47.462;19.030;2023-04-25T12:21:28;99377.69;;;19.30;45.54
57904;BME280;43720;47.462;19.030;2023-04-25T12:24:33;99361.37;;;20.30;40.74
57904;BME280;43720;47.462;19.030;2023-04-25T12:27:40;99357.53;;;21.39;37.87
57904;BME280;43720;47.462;19.030;2023-04-25T12:33:58;99357.12;;;21.28;35.70
57904;BME280;43720;47.462;19.030;2023-04-25T12:37:00;99366.41;;;19.48;38.69
57904;BME280;43720;47.462;19.030;2023-04-25T12:40:02;99345.66;;;19.36;39.91
57904;BME280;43720;47.462;19.030;2023-04-25T12:43:06;99357.50;;;19.02;38.03
57904;BME280;43720;47.462;19.030;2023-04-25T12:46:08;99345.53;;;19.39;36.15
57904;BME280;43720;47.462;19.030;2023-04-25T12:49:11;99346.84;;;19.27;37.00
57904;BME280;43720;47.462;19.030;2023-04-25T12:52:18;99339.47;;;18.62;40.52
57904;BME280;43720;47.462;19.030;2023-04-25T12:55:20;99342.31;;;17.48;39.98
57904;BME280;43720;47.462;19.030;2023-04-25T12:58:22;99342.69;;;17.64;39.46
57904;BME280;43720;47.462;19.030;2023-04-25T13:01:25;99346.50;;;17.55;40.24
57904;BME280;43720;47.462;19.030;2023-04-25T13:04:28;99336.59;;;18.18;38.36
57904;BME280;43720;47.462;19.030;2023-04-25T13:07:31;99326.50;;;19.75;36.98
57904;BME280;43720;47.462;19.030;2023-04-25T13:10:36;99339.31;;;19.64;39.32
57904;BME280;43720;47.462;19.030;2023-04-25T13:13:40;99331.41;;;19.15;37.25
57904;BME280;43720;47.462;19.030;2023-04-25T13:16:43;99338.50;;;18.91;38.04
57904;BME280;43720;47.462;19.030;2023-04-25T13:19:45;99328.91;;;18.37;39.42
57904;BME280;43720;47.462;19.030;2023-04-25T13:22:47;99333.59;;;18.02;39.49
57904;BME280;43720;47.462;19.030;2023-04-25T13:25:50;99336.41;;;18.23;39.92
57904;BME280;43720;47.462;19.030;2023-04-25T13:28:52;99329.56;;;17.91;37.76
57904;BME280;43720;47.462;19.030;2023-04-25T13:31:57;99326.38;;;17.79;38.62
57904;BME280;43720;47.462;19.030;2023-04-25T13:34:59;99327.84;;;17.90;38.90
57904;BME280;43720;47.462;19.030;2023-04-25T13:38:03;99323.50;;;17.87;39.91
57904;BME280;43720;47.462;19.030;2023-04-25T13:41:06;99316.41;;;17.89;38.45
57904;BME280;43720;47.462;19.030;2023-04-25T13:44:09;99313.63;;;17.64;37.72
57904;BME280;43720;47.462;19.030;2023-04-25T13:47:12;99324.72;;;17.18;38.64
57904;BME280;43720;47.462;19.030;2023-04-25T13:50:15;99311.97;;;17.32;40.46
57904;BME280;43720;47.462;19.030;2023-04-25T13:53:17;99324.94;;;17.10;40.88
57904;BME280;43720;47.462;19.030;2023-04-25T13:56:20;99338.94;;;17.14;44.07
57904;BME280;43720;47.462;19.030;2023-04-25T13:59:23;99321.53;;;17.06;39.72
57904;BME280;43720;47.462;19.030;2023-04-25T14:02:25;99321.38;;;17.12;40.74
57904;BME280;43720;47.462;19.030;2023-04-25T14:05:28;99319.28;;;17.24;42.90
57904;BME280;43720;47.462;19.030;2023-04-25T14:08:30;99313.06;;;17.25;40.18
57904;BME280;43720;47.462;19.030;2023-04-25T14:11:32;99312.84;;;17.32;40.09
57904;BME280;43720;47.462;19.030;2023-04-25T14:14:35;99309.59;;;17.52;38.29
57904;BME280;43720;47.462;19.030;2023-04-25T14:17:37;99322.63;;;17.29;39.11
57904;BME280;43720;47.462;19.030;2023-04-25T14:20:39;99321.16;;;17.19;38.40
57904;BME280;43720;47.462;19.030;2023-04-25T14:23:42;99322.72;;;17.83;37.96
57904;BME280;43720;47.462;19.030;2023-04-25T14:26:44;99320.53;;;18.49;37.07
57904;BME280;43720;47.462;19.030;2023-04-25T14:29:47;99309.34;;;19.38;33.76
57904;BME280;43720;47.462;19.030;2023-04-25T14:32:49;99315.94;;;19.95;32.00
57904;BME280;43720;47.462;19.030;2023-04-25T14:35:52;99308.06;;;20.77;29.95
57904;BME280;43720;47.462;19.030;2023-04-25T14:38:54;99313.13;;;22.50;29.71
57904;BME280;43720;47.462;19.030;2023-04-25T14:41:57;99301.59;;;24.27;26.97
57904;BME280;43720;47.462;19.030;2023-04-25T14:44:59;99304.84;;;24.48;26.05
57904;BME280;43720;47.462;19.030;2023-04-25T14:48:02;99305.47;;;23.43;27.00
57904;BME280;43720;47.462;19.030;2023-04-25T14:51:04;99301.94;;;22.77;28.79
57904;BME280;43720;47.462;19.030;2023-04-25T14:54:07;99307.91;;;22.82;27.60
57904;BME280;43720;47.462;19.030;2023-04-25T14:57:09;99293.09;;;22.76;29.43
57904;BME280;43720;47.462;19.030;2023-04-25T15:00:12;99306.16;;;23.63;28.62
57904;BME280;43720;47.462;19.030;2023-04-25T15:03:18;99293.13;;;23.09;27.09
57904;BME280;43720;47.462;19.030;2023-04-25T15:06:20;99301.56;;;21.42;27.82
57904;BME280;43720;47.462;19.030;2023-04-25T15:09:22;99314.94;;;20.40;31.30
57904;BME280;43720;47.462;19.030;2023-04-25T15:12:26;99315.66;;;20.23;32.98
57904;BME280;43720;47.462;19.030;2023-04-25T15:15:30;99316.09;;;19.00;32.25
57904;BME280;43720;47.462;19.030;2023-04-25T15:18:32;99326.50;;;18.54;34.38
57904;BME280;43720;47.462;19.030;2023-04-25T15:21:35;99322.56;;;17.88;34.56
57904;BME280;43720;47.462;19.030;2023-04-25T15:24:37;99323.09;;;17.71;35.13
57904;BME280;43720;47.462;19.030;2023-04-25T15:27:40;99318.59;;;17.17;37.19
57904;BME280;43720;47.462;19.030;2023-04-25T15:30:45;99327.31;;;16.88;38.50
57904;BME280;43720;47.462;19.030;2023-04-25T15:33:47;99334.16;;;16.62;38.39
57904;BME280;43720;47.462;19.030;2023-04-25T15:36:50;99342.16;;;16.25;38.96
57904;BME280;43720;47.462;19.030;2023-04-25T15:40:10;99332.09;;;16.07;40.61
57904;BME280;43720;47.462;19.030;2023-04-25T15:43:14;99339.41;;;15.94;41.67
